Погода Прокудына 2 недели

Витебская область, Белоруссия

23 мая-05 июня
  • 23мая
    Сегодня
    +12°
    +24°
    Ясно и безоблачно
    ВремяПогодаТемператураВлажностьДавлениеВетер, м/сВероятность осадков
    00:00Ясно и безоблачно+17°C91 %753 мм2.8 м/с1 %
    03:00Ясно и безоблачно+15°C93 %753 мм3.3 м/с2 %
    06:00Ясно и безоблачно+15°C84 %754 мм3.6 м/с2 %
    09:00Ясно и безоблачно+18°C64 %755 мм3.5 м/с2 %
    12:00Ясно и безоблачно+22°C53 %755 мм4.7 м/с2 %
    15:00Ясно и безоблачно+24°C42 %755 мм5.1 м/с2 %
    18:00Ясно и безоблачно+23°C41 %755 мм4.5 м/с1 %
    21:00Ясно и безоблачно+19°C54 %756 мм3.5 м/с2 %
  • 24мая
    Пятница
    +10°
    +22°
    Практически безоблачно
    ВремяПогодаТемператураВлажностьДавлениеВетер, м/сВероятность осадков
    00:00Ясно и безоблачно+16°C53 %757 мм4.2 м/с2 %
    03:00Ясно и безоблачно+13°C59 %758 мм4.0 м/с2 %
    06:00Ясно и безоблачно+12°C63 %759 мм3.9 м/с2 %
    09:00Практически безоблачно+15°C53 %759 мм3.8 м/с2 %
    12:00Небольшая облачность+19°C40 %759 мм4.6 м/с2 %
    15:00Практически безоблачно+21°C38 %759 мм4.7 м/с2 %
    18:00Ясно и безоблачно+21°C37 %758 мм4.2 м/с2 %
    21:00Ясно и безоблачно+16°C51 %758 мм2.7 м/с2 %
  • 25мая
    Суббота
    +9°
    +24°
    Ясно и безоблачно
    ВремяПогодаТемператураВлажностьДавлениеВетер, м/сВероятность осадков
    00:00Ясно и безоблачно+13°C55 %759 мм3.2 м/с2 %
    03:00Ясно и безоблачно+11°C64 %758 мм3.0 м/с2 %
    06:00Ясно и безоблачно+11°C70 %758 мм3.1 м/с2 %
    09:00Ясно и безоблачно+16°C59 %758 мм2.8 м/с2 %
    12:00Ясно и безоблачно+21°C44 %758 мм3.3 м/с2 %
    15:00Ясно и безоблачно+24°C39 %757 мм3.6 м/с2 %
    18:00Ясно и безоблачно+23°C41 %756 мм3.0 м/с2 %
    21:00Ясно и безоблачно+17°C68 %756 мм2.2 м/с2 %
  • 26мая
    Воскресенье
    +13°
    +25°
    Ясно и безоблачно
    ВремяПогодаТемператураВлажностьДавлениеВетер, м/сВероятность осадков
    00:00Ясно и безоблачно+14°C71 %756 мм2.4 м/с2 %
    03:00Ясно и безоблачно+11°C85 %756 мм2.3 м/с2 %
    06:00Ясно и безоблачно+12°C80 %756 мм1.2 м/с2 %
    09:00Ясно и безоблачно+19°C58 %757 мм1.0 м/с2 %
    12:00Практически безоблачно+22°C41 %756 мм1.5 м/с2 %
    15:00Ясно и безоблачно+24°C40 %756 мм1.8 м/с2 %
    18:00Облачно с прояснениями+24°C40 %755 мм1.5 м/с3 %
    21:00Ясно и безоблачно+21°C51 %755 мм0.3 м/с2 %
  • 27мая
    Понедельник
    +15°
    +25°
    Небольшая облачность
    ВремяПогодаТемператураВлажностьДавлениеВетер, м/сВероятность осадков
    00:00Ясно и безоблачно+15°C81 %755 мм2.1 м/с2 %
    03:00Ясно и безоблачно+14°C82 %756 мм1.2 м/с2 %
    06:00Ясно и безоблачно+14°C84 %756 мм1.9 м/с2 %
    09:00Ясно и безоблачно+20°C71 %757 мм1.2 м/с2 %
    12:00Ясно и безоблачно+23°C56 %757 мм2.3 м/с18 %
    15:00Небольшая облачность+25°C53 %757 мм2.9 м/с17 %
    18:00Небольшая облачность+24°C60 %756 мм2.6 м/с32 %
    21:00Практически безоблачно+21°C77 %756 мм1.7 м/с14 %
Мы используем cookies
Соглашаюсь